• Join FlightAware (Why Join?)
  • Login
  • US Flag 
05:08PM EDT


 

Airport Tracker/Info


-or-


 

Live Flight TrackerFlight Track Log ✈ DAL1562 ✈ 01-May-2013 ✈ KSLC - KDEN

Flight Track Log - Related Links

Times and Time Zones

All times are in EDT time to prevent confusion due to time zone crossing. See the DAL1562 flight status page for this flight to view local times or setup timezone preferences in your user account.

Time Position Orientation Groundspeed Altitude Reporting Facility
EDT Latitude Longitude Course Direction KTS MPH feet Rate Location/Type
10:39PM 40.8075 -111.9619 148° Southeast 163 188 5,200  Level Salt Lake Center
10:41PM 40.8856 -111.9753 353° North 220 253 7,900 2,280 Climbing Salt Lake Center
10:41PM 40.9339 -111.9814 355° North 245 282 10,100 2,640 Climbing Salt Lake Center
10:42PM 41.1062 -111.9620 51° Northeast  Level FlightAware Approximate
10:42PM 40.9511 -111.9847 352° North 249 287 10,900  Level Salt Lake Center
10:43PM 41.1333 -111.8248 90° East  Level FlightAware Approximate
10:43PM 41.0103 -111.9461 26° Northeast 266 306 13,900  Level Salt Lake Center
10:44PM 41.0620 -111.7188 148° Southeast  Level FlightAware Approximate
10:44PM 40.9906 -111.8217 102° East 314 361 15,600  Level Salt Lake Center
10:45PM 40.9659 -111.6402 148° Southeast  Level FlightAware Approximate
10:45PM 40.9658 -111.6903 104° East 381 438 16,800  Level Salt Lake Center
10:46PM 40.9378 -111.5472 105° East 402 463 18,500 1,740 Climbing Salt Lake Center
10:47PM 40.9089 -111.3947 104° East 429 494 20,400 2,040 Climbing Salt Lake Center
10:48PM 40.8864 -111.2053 99° East 438 504 22,700 1,920 Climbing Salt Lake Center
10:49PM 40.8672 -111.0447 99° East 443 510 24,400 1,500 Climbing Salt Lake Center
10:50PM 40.8467 -110.8797 99° East 455 524 25,800 1,440 Climbing Salt Lake Center
10:51PM 40.8261 -110.7153 99° East 456 525 27,400 1,020 Climbing Salt Lake Center
10:52PM 40.8056 -110.5450 99° East 475 547 28,000 840 Climbing Salt Lake Center
10:53PM 40.7808 -110.3431 99° East 497 572 29,200 1,560 Climbing Salt Lake Center
10:54PM 40.7581 -110.1706 100° East 488 562 31,300 1,500 Climbing Salt Lake Center
10:55PM 40.7383 -110.0031 99° East 483 556 32,300 1,020 Climbing Salt Lake Center
10:56PM 40.7247 -109.8039 95° East 485 558 33,500 1,260 Climbing Salt Lake Center
10:57PM 40.7125 -109.6339 95° East 487 560 34,900 720 Climbing Salt Lake Center
10:58PM 40.7008 -109.4653 95° East 484 557 35,000  Climbing Salt Lake Center
10:59PM 40.6856 -109.2664 96° East 486 559 35,000  Level Salt Lake Center
11:00PM 40.6708 -109.0775 96° East 493 567 35,000  Level Salt Lake Center
11:01PM 40.6572 -108.9033 96° East 501 577 35,000  Level Salt Lake Center
11:02PM 40.6433 -108.7111 95° East 499 574 35,000  Level Denver Center
11:03PM 40.6286 -108.5367 96° East 498 573 35,000  Level Denver Center
11:04PM 40.6136 -108.3633 96° East 497 572 35,000  Level Denver Center
11:05PM 40.5964 -108.1544 96° East 497 572 35,000  Level Salt Lake Center
11:06PM 40.5808 -107.9825 97° East 499 574 35,000  Level Salt Lake Center
11:07PM 40.5664 -107.8167 96° East 495 570 35,000  Level Denver Center
11:08PM 40.5481 -107.6142 97° East 497 572 35,100  Climbing Denver Center
11:09PM 40.5328 -107.4464 97° East 487 560 35,000 -60 Descending Denver Center
11:10PM 40.5150 -107.2481 97° East 488 562 35,000  Level Denver Center
11:11PM 40.5075 -107.0844 93° East 486 559 35,000  Level Denver Center
11:12PM 40.4981 -106.9044 94° East 490 564 35,000  Level Denver Center
11:13PM 40.4883 -106.7250 94° East 492 566 35,000  Level Denver Center
11:14PM 40.4786 -106.5453 94° East 490 564 35,100 -900 Climbing Denver Center
11:16PM 40.4653 -106.3381 95° East 488 562 33,200 -2,100 Descending Denver Center
11:17PM 40.4556 -106.1697 94° East 483 556 30,900 -2,100 Descending Denver Center
11:18PM 40.4439 -105.9922 95° East 476 548 28,500 -2,220 Descending Denver Center
11:19PM 40.4136 -105.8006 102° East 453 521 26,000 -2,280 Descending Denver Center
11:20PM 40.3900 -105.6453 101° East 434 499 23,900 -1,980 Descending Denver Center
11:21PM 40.3661 -105.4986 102° East 412 474 22,000 -1,680 Descending Denver Center
11:22PM 40.3164 -105.3758 118° Southeast 354 407 20,200 -1,800 Descending Denver Center
11:23PM 40.2439 -105.2600 129° Southeast 331 381 18,000 -1,620 Descending Denver Center
11:24PM 40.1833 -105.1656 130° Southeast 336 387 17,000 -1,080 Descending Denver Center
11:25PM 40.1203 -105.0664 130° Southeast 330 380 15,900 -1,080 Descending Denver Center
11:26PM 40.0622 -104.9769 130° Southeast 325 374 14,800 -1,080 Descending Denver Center
11:27PM 40.0056 -104.8889 130° Southeast 319 367 13,800 -1,020 Descending Denver Center
11:28PM 39.9469 -104.8100 134° Southeast 305 351 12,800 -900 Descending Denver Center
11:29PM 39.8753 -104.8078 179° South 308 354 12,000 -960 Descending Denver Center
11:30PM 39.7811 -104.8097 181° South 265 305 10,900 -1,260 Descending Denver Center
11:31PM 39.7122 -104.8117 181° South 252 290 9,500 -900 Descending Denver Center
11:32PM 39.6536 -104.7853 161° South 216 249 9,100 -720 Descending Denver Center
11:33PM 39.6517 -104.7153 92° East 197 227 8,100 -1,020 Descending Denver Center